Sunday, February 17, 2019, 3:24 PM EST
Back to Local

KMGJ, Montgomery Orange Co Airport

Location: Montgomery, NY, United States Lat: 41.517
Local Time: 3:24 PM EST (20:24 GMT) Lon: -74.267
Time Zone: US/Eastern Elev: 354 ft

Show me the last for .
Show Coded

Time T Td Feel RH Dir Speed Gust Alt SLP Vis Weather Sky Remarks
2019-02-17 14:54 35 15 - 43 - Calm - 30.03 30.04 10 CLR None
2019-02-17 13:54 34 15 31 45 160° 3 - 30.06 30.08 10 CLR Pressure falling rapidly
2019-02-17 12:54 33 15 - 47 - Calm - 30.13 30.14 10 CLR 6-hr Min Temp (1pm): 15.1°F
6-hr Max Temp (1pm): 33.1°F
2019-02-17 11:54 31 15 27 51 Variable 3 - 30.07 30.09 10 CLR None
2019-02-17 10:54 29 14 23 53 Variable 6 - 30.12 30.13 10 CLR None
2019-02-17 09:54 27 16 23 62 10° 3 - 30.13 30.14 10 CLR None
2019-02-17 08:54 23 15 - 71 - Calm - 30.15 30.16 10 CLR None
2019-02-17 07:54 19 15 - 84 - Calm - 30.13 30.14 10 CLR None
2019-02-17 06:54 15 13 - 90 - Calm - 30.09 30.10 10 CLR 6-hr Min Temp (7am): 15.1°F
6-hr Max Temp (7am): 24.1°F
2019-02-17 05:54 18 13 - 80 - Calm - 30.07 30.09 10 CLR None
2019-02-17 04:54 18 12 - 77 - Calm - 30.07 30.09 10 CLR None
2019-02-17 03:54 20 13 - 73 - Calm - 30.07 30.09 10 CLR None
2019-02-17 02:54 19 13 - 76 - Calm - 30.04 30.06 10 CLR None
2019-02-17 01:54 23 13 18 64 310° 3 - 30.06 30.07 10 CLR None
2019-02-17 00:54 23 13 16 64 320° 6 - 30.07 30.08 10 CLR 6-hr Min Temp (1am): 21.9°F
6-hr Max Temp (1am): 32.0°F
2019-02-16 23:54 23 16 - 74 - Calm - 30.06 30.07 10 CLR 24-hr Min Temp (12am): 23.0°F
24-hr Max Temp (12am): 37.9°F
2019-02-16 22:54 24 15 - 68 - Calm - 30.03 30.03 10 CLR None
2019-02-16 21:54 27 13 - 54 - Calm - 30.00 30.01 10 CLR None
2019-02-16 20:54 28 14 19 55 320° 9 - 29.97 29.98 10 CLR None
2019-02-16 19:54 30 15 20 53 330° 13 - 29.96 29.96 10 CLR None
2019-02-16 18:54 32 15 24 49 320° 9 - 29.93 29.94 10 CLR 6-hr Min Temp (7pm): 32.0°F
6-hr Max Temp (7pm): 37.9°F
2019-02-16 17:54 34 16 25 47 310° 13 - 29.91 29.92 10 CLR None
2019-02-16 16:54 37 17 28 43 300° 14 - 29.87 29.88 10 CLR None
2019-02-16 15:54 38 17 31 42 310° 10 - 29.85 29.86 10 CLR None

Support USWX by starting your Amazon purchase here.